Ana Sayfa
METAR-TAF:

METAR-TAF

Havaalanları :

Stockholm-Arlanda Havalimanı

Stokholm-Arlanda, İsveç

Enlem: 59-39N, Boylam: 017-57E, yükseklik: 38 m

Güncel hava durumu gözlemi

Rapor saat 04:50 UTC de 30 dakika önce yapıldı.
Rüzgar kuzeybatıdan 3 kt, batı ve kuzey arasında değişken
Sıcaklık 0°C
Nem 86%
Basınç 1034 hPa
Görüş mesafesi 10 km veya daha fazla
1600 ft yükseklikte çok bulutlu

METAR: ESSA 200450Z 31003KT 280V350 9999 OVC016 M00/M02 Q1034 R01L/09//95 R08/09//95 R01R/09//95 NOSIG

Saat: 06:20 (05:20 UTC)

Tahmin

Rapor saat 23:30 UTC de 5 saat ve 50 dakika önce yapıldı.
Ayın 20'si saat 00 UTC'den ayın 20'si saat 24 UTC'ye kadar geçerli Tahmin
Rüzgar kuzeydan 4 kt
Görüş mesafesi 10 km veya daha fazla
1500 m altında bulut yok ve kümülonimbus yok

TAF: ESSA 192330Z 2000/2024 36004KT CAVOK

4.000'den fazla havaalanı için hava durumu gözlemleri ve tahminleri (METAR ve TAF raporları).

Kullanılabilir istasyonlar harita üzerinde sarı ve kırmızı noktalarla gösterilir.

İstasyonun adını görmek için fareyi noktanın üzerinde gezdirin.

Sonrasında hava gözlem ve tahminlerini görmek için tıklayın.

Haritayı değiştirmek için: yaklaştırmak için siyah artı işaretli yeşil düğmeye ve uzaklaştırmak için de eksi işaretli düğmeye hızla tıklayın; bitişik haritalar için yeşil okları kullanın.


METAR-TAF: